メインページ
METAR-TAF:

METAR-TAF

空港 :

バンコク, タイ

ドンムアン空港

緯度: 13-54-45N, 経度: 100-36-24E, 海抜: 4m

現時点の気象観測

当レポートは44分前の14:00(UTC)に作成
西/南西の風 10kt
気温 30°C
湿度 66%
気圧 1004 hPa
視程10km以上
高度2000ftの雲はほとんどない

METAR: VTBD 271400Z 24010KT 9999 FEW020 30/23 Q1004 NOSIG

時間: 21:44 (14:44 UTC)

予報

当レポートは3時間44分前の11:00(UTC)に作成
予報は27日の 12時(UTC)から 28日の 18時(UTC)まで有効
西の風 10kt
視程10km以上
高度2000ftの雲はほとんどない
27日の 16時(UTC)から 27日の 18時(UTC)まで徐々に
南西の風 5kt
高度2000ftの雲はほとんどない
高度10000ftの千切れ雲あり
28日の 00時(UTC)から 28日の 02時(UTC)まで徐々に
西の風 10kt
高度2000ftの雲はほとんどない
高度4000ftの雲は散在している
28日の 06時(UTC)から 28日の 12時(UTC)まで一時的に
西の風 15kt
視程: 7000m
高度2000ftの雲はほとんどない
高度3500ftの雲は散在している
高度10000ftの千切れ雲あり
小雨
28日の 12時(UTC)から 28日の 14時(UTC)まで徐々に
南西の風 5kt
高度2000ftの雲はほとんどない

TAF: VTBD 271100Z 2712/2818 26010KT 9999 FEW020 BECMG 2716/2718 22005KT FEW020 BKN100 BECMG 2800/2802 26010KT FEW020 SCT040 TEMPO 2806/2812 26015KT 7000 -RA FEW020 SCT035 BKN100 BECMG 2812/2814 22005KT FEW020

4,000以上の空港の気象観測と天気予報(METAR報とTAF報)

利用可能な観測所は地図上に黄色い丸と赤い丸で示す。

丸の上にカーソルを重ねると観測所名を参照できる。

次にクリックすると気象観測と天気予報を参照できる。

マップの切り替え:黒色「×」印の緑ボタンをクリックして拡大、「-」印の緑ボタンをクリックして縮小、緑色の三角印をクリックして隣りの地図に切り替え


METAR-TAF: